createdAt,value
2023-10-17T00:04:01.848Z,1014.7
2023-10-17T00:10:21.694Z,1014.75
2023-10-17T00:16:43.673Z,1014.87
2023-10-17T00:23:03.664Z,1014.69
2023-10-17T00:29:25.639Z,1014.67
2023-10-17T00:35:45.655Z,1014.69
2023-10-17T00:42:07.798Z,1014.5
2023-10-17T00:48:27.740Z,1014.6
2023-10-17T00:54:49.655Z,1014.64
2023-10-17T01:01:09.681Z,1014.6
2023-10-17T01:07:31.781Z,1014.69
2023-10-17T01:13:51.693Z,1014.55
2023-10-17T01:20:13.655Z,1014.65
2023-10-17T01:26:33.672Z,1014.64
2023-10-17T01:32:55.720Z,1014.43
2023-10-17T01:39:15.685Z,1014.24
2023-10-17T01:45:37.658Z,1014.43
2023-10-17T01:51:57.666Z,1014.43
2023-10-17T01:58:19.680Z,1014.27
2023-10-17T02:04:39.661Z,1014.3
2023-10-17T02:11:01.664Z,1014.18
2023-10-17T02:17:21.640Z,1014.08
2023-10-17T02:23:43.634Z,1014.16
2023-10-17T02:30:03.716Z,1014.17
2023-10-17T02:36:25.734Z,1014.01
2023-10-17T02:42:45.643Z,1014.04
2023-10-17T02:49:07.690Z,1014.08
2023-10-17T02:55:27.644Z,1014.01
2023-10-17T03:01:49.712Z,1013.91
2023-10-17T03:08:09.721Z,1013.84
2023-10-17T03:31:38.749Z,1013.83
2023-10-17T03:37:59.731Z,1013.88
2023-10-17T03:44:19.628Z,1013.91
2023-10-17T03:50:40.685Z,1013.9
2023-10-17T03:57:00.670Z,1013.87
2023-10-17T04:03:22.907Z,1013.97
2023-10-17T04:09:42.726Z,1014
2023-10-17T04:16:04.647Z,1013.96
2023-10-17T04:22:24.645Z,1014.04
2023-10-17T04:28:46.665Z,1013.98
2023-10-17T04:35:06.678Z,1013.8
2023-10-17T04:41:28.661Z,1013.82
2023-10-17T04:47:48.674Z,1013.71
2023-10-17T04:54:10.690Z,1013.72
2023-10-17T05:00:30.670Z,1013.66
2023-10-17T05:06:52.712Z,1013.71
2023-10-17T05:13:12.705Z,1013.67
2023-10-17T05:19:34.665Z,1013.64
2023-10-17T05:25:54.668Z,1013.64
2023-10-17T05:32:16.653Z,1013.75
2023-10-17T05:38:36.661Z,1013.91
2023-10-17T05:44:58.678Z,1013.93
2023-10-17T05:51:18.739Z,1013.93
2023-10-17T05:57:40.700Z,1013.78
2023-10-17T06:03:59.775Z,1013.73
2023-10-17T06:10:21.740Z,1013.69
2023-10-17T06:16:41.640Z,1013.69
2023-10-17T06:23:03.695Z,1013.83
2023-10-17T06:29:23.689Z,1013.92
2023-10-17T06:35:45.696Z,1014.08
2023-10-17T06:42:05.701Z,1014.1
2023-10-17T06:48:27.741Z,1014.15
2023-10-17T06:54:47.668Z,1014.23
2023-10-17T07:01:09.811Z,1014.16
2023-10-17T07:07:29.649Z,1014.13
2023-10-17T07:13:52.967Z,1014.05
2023-10-17T07:20:11.699Z,1014.04
2023-10-17T07:26:33.670Z,1013.99
2023-10-17T07:32:53.688Z,1014.07
2023-10-17T07:39:15.718Z,1014
2023-10-17T07:45:35.668Z,1014
2023-10-17T07:51:57.695Z,1014.03
2023-10-17T07:58:17.664Z,1014
2023-10-17T08:04:39.718Z,1013.94
2023-10-17T08:10:59.689Z,1013.95
2023-10-17T08:34:38.647Z,1013.68
2023-10-17T08:41:00.636Z,1013.64
2023-10-17T08:47:20.813Z,1013.67
2023-10-17T08:53:43.877Z,1013.73
2023-10-17T09:00:03.672Z,1013.79
2023-10-17T09:06:25.662Z,1013.86
2023-10-17T09:12:45.726Z,1013.88
2023-10-17T09:19:07.635Z,1013.9
2023-10-17T09:25:26.658Z,1013.7
2023-10-17T09:31:48.711Z,1013.68
2023-10-17T09:38:08.742Z,1013.63
2023-10-17T09:44:30.674Z,1013.5
2023-10-17T09:50:50.703Z,1013.66
2023-10-17T09:57:12.646Z,1013.44
2023-10-17T10:03:32.695Z,1013.38
2023-10-17T10:09:54.708Z,1013.24
2023-10-17T10:16:14.702Z,1013.21
2023-10-17T10:22:36.824Z,1013.32
2023-10-17T10:28:56.662Z,1013.3
2023-10-17T10:35:19.781Z,1013.31
2023-10-17T10:41:38.664Z,1013.3
2023-10-17T10:48:00.830Z,1013.16
2023-10-17T10:54:20.682Z,1013.05
2023-10-17T11:00:42.685Z,1012.87
2023-10-17T11:07:02.661Z,1012.84
2023-10-17T11:13:24.642Z,1012.76
2023-10-17T11:19:44.636Z,1012.57
2023-10-17T11:26:17.104Z,1012.54
2023-10-17T11:32:26.645Z,1012.52
2023-10-17T11:38:47.654Z,1012.52
2023-10-17T11:45:08.935Z,1012.44
2023-10-17T11:51:29.662Z,1012.37
2023-10-17T11:57:49.685Z,1012.31
2023-10-17T12:04:12.797Z,1012.32
2023-10-17T12:10:35.049Z,1012.21
2023-10-17T12:16:54.654Z,1012.13
2023-10-17T12:23:17.093Z,1012.09
2023-10-17T12:29:36.636Z,1012.08
2023-10-17T12:35:57.672Z,1011.89
2023-10-17T12:42:19.737Z,1011.82
2023-10-17T12:48:39.682Z,1011.69
2023-10-17T12:55:01.659Z,1011.63
2023-10-17T13:01:21.690Z,1011.67
2023-10-17T13:07:43.652Z,1011.66
2023-10-17T13:14:02.644Z,1011.48
2023-10-17T13:36:48.918Z,1011.27
2023-10-17T13:43:10.648Z,1011.14
2023-10-17T13:49:30.696Z,1011
2023-10-17T13:55:52.676Z,1010.89
2023-10-17T14:02:12.716Z,1010.92
2023-10-17T14:08:34.694Z,1010.92
2023-10-17T14:14:54.707Z,1011.01
2023-10-17T14:21:16.736Z,1010.99
2023-10-17T14:27:36.659Z,1010.96
2023-10-17T14:33:58.761Z,1010.88
2023-10-17T14:40:18.648Z,1010.89
2023-10-17T14:46:40.697Z,1010.7
2023-10-17T14:53:00.668Z,1010.69
2023-10-17T14:59:22.659Z,1010.61
2023-10-17T15:05:42.683Z,1010.55
2023-10-17T15:12:04.708Z,1010.62
2023-10-17T15:18:24.732Z,1010.56
2023-10-17T15:24:46.669Z,1010.4
2023-10-17T15:31:06.692Z,1010.47
2023-10-17T15:37:28.614Z,1010.4
2023-10-17T15:43:48.628Z,1010.48
2023-10-17T15:50:10.642Z,1010.54
2023-10-17T15:56:30.650Z,1010.46
2023-10-17T16:02:52.721Z,1010.54
2023-10-17T16:09:12.670Z,1010.62
2023-10-17T16:15:34.700Z,1010.6
2023-10-17T16:21:54.637Z,1010.55
2023-10-17T16:28:16.666Z,1010.56
2023-10-17T16:34:36.699Z,1010.57
2023-10-17T16:40:58.630Z,1010.71
2023-10-17T16:47:18.678Z,1010.66
2023-10-17T16:53:40.642Z,1010.77
2023-10-17T17:00:08.964Z,1010.79
2023-10-17T17:06:22.706Z,1010.88
2023-10-17T17:12:42.713Z,1010.85
2023-10-17T17:19:04.675Z,1010.89
2023-10-17T17:25:24.892Z,1010.87
2023-10-17T17:31:46.676Z,1010.89
2023-10-17T17:38:06.648Z,1010.96
2023-10-17T17:44:28.650Z,1010.93
2023-10-17T17:50:47.620Z,1010.86
2023-10-17T17:57:08.702Z,1010.75
2023-10-17T18:03:28.870Z,1010.75
2023-10-17T18:09:50.630Z,1010.77
2023-10-17T18:16:11.803Z,1010.72
2023-10-17T18:22:33.653Z,1010.75
2023-10-17T18:45:37.153Z,1010.62
2023-10-17T18:51:56.633Z,1010.62
2023-10-17T18:58:17.621Z,1010.64
2023-10-17T19:04:37.639Z,1010.58
2023-10-17T19:10:59.639Z,1010.52
2023-10-17T19:17:19.634Z,1010.55
2023-10-17T19:23:41.635Z,1010.62
2023-10-17T19:30:01.647Z,1010.56
2023-10-17T19:36:23.601Z,1010.48
2023-10-17T19:42:43.728Z,1010.44
2023-10-17T19:49:05.650Z,1010.37
2023-10-17T19:55:25.641Z,1010.32
2023-10-17T20:01:47.659Z,1010.21
2023-10-17T20:08:07.650Z,1010.19
2023-10-17T20:14:29.638Z,1010.11
2023-10-17T20:20:49.646Z,1010.13
2023-10-17T20:27:11.656Z,1010.07
2023-10-17T20:33:31.649Z,1010.04
2023-10-17T20:39:53.686Z,1010.01
2023-10-17T20:46:13.692Z,1009.84
2023-10-17T20:52:35.671Z,1009.74
2023-10-17T20:58:55.666Z,1009.76
2023-10-17T21:05:17.637Z,1009.71
2023-10-17T21:11:38.025Z,1009.74
2023-10-17T21:17:59.685Z,1009.65
2023-10-17T21:24:19.646Z,1009.56
2023-10-17T21:30:41.670Z,1009.49
2023-10-17T21:37:01.752Z,1009.44
2023-10-17T21:43:23.656Z,1009.31
2023-10-17T21:49:43.637Z,1009.19
2023-10-17T21:56:05.711Z,1009.21
2023-10-17T22:20:20.647Z,1009.02
2023-10-17T22:26:39.639Z,1008.98
2023-10-17T22:33:01.633Z,1008.95
2023-10-17T22:39:20.660Z,1008.92
2023-10-17T22:45:42.676Z,1008.97
2023-10-17T22:52:02.704Z,1008.92
2023-10-17T22:58:24.732Z,1008.93
2023-10-17T23:04:44.627Z,1008.82
2023-10-17T23:11:06.662Z,1008.75
2023-10-17T23:17:26.783Z,1008.65
2023-10-17T23:23:48.653Z,1008.58
2023-10-17T23:30:08.677Z,1008.51
2023-10-17T23:36:30.679Z,1008.45
2023-10-17T23:42:50.724Z,1008.43
2023-10-17T23:49:12.695Z,1008.41
2023-10-17T23:55:32.664Z,1008.4
